PWSweather.com
Personal Weather Stations
Station Observations
MART18
Seleziona Stato..., MartinsicuroIT italia

Seleziona Stato...MartinsicuroIT italia

Lat: 42.885169, Lon: 13.918447300000025

Elevation: 3

Station Type: Davis vantage vp2

branciuno67@gmail.com

High Low Average
Temperature 54.0°F12.2°C 46.0°F7.8°C 49.6°F9.8°C
Dew Point 48.0°F8.9°C 42.1°F5.6°C 45.1°F7.3°C
Winds 10.1 mph 16.3 kmh Calm Calm 3.0 mph SW4.8 kmh SW
Wind Gusts 17.0 mph27.4 kmh -- 7.0 mph11.3 kmh
Humidity 87% 80% 84%
Pressure 29.77 in1008.1 mb 29.48 in998.3 mb -
Precipitation 0.40 in10.2 mm - -
Hour Temp Dew Point Humidity Winds Wind Gusts Pressure Precip Precip Rate Daily Precip Total
12:00 AM 47.8°F8.8°C 43.9°F6.6°C 86% 0.9 mph N1.4 kmh N 4.0 mph6.4 kmh 29.57 in1001.4 mb 0.00 in0.0 mm 0.00 in0.0 mm 0.00 in0.0 mm
12:05 AM 47.8°F8.8°C 43.9°F6.6°C 86% 0.9 mph N1.4 kmh N 2.9 mph4.7 kmh 29.56 in1001.0 mb 0.00 in0.0 mm 0.00 in0.0 mm 0.00 in0.0 mm
12:10 AM 47.7°F8.7°C 43.7°F6.5°C 86% 0.9 mph NW1.4 kmh NW 2.9 mph4.7 kmh 29.56 in1001.0 mb 0.01 in0.3 mm 0.12 in3.0 mm 0.01 in0.3 mm
12:15 AM 47.7°F8.7°C 43.7°F6.5°C 86% 0.9 mph NW1.4 kmh NW 4.0 mph6.4 kmh 29.56 in1001.0 mb 0.01 in0.3 mm 0.00 in0.0 mm 0.01 in0.3 mm
12:20 AM 47.7°F8.7°C 43.7°F6.5°C 86% 0.9 mph NW1.4 kmh NW 2.9 mph4.7 kmh 29.55 in1000.7 mb 0.01 in0.3 mm 0.00 in0.0 mm 0.01 in0.3 mm
12:25 AM 47.7°F8.7°C 43.7°F6.5°C 86% Calm Calm 2.9 mph4.7 kmh 29.55 in1000.7 mb 0.02 in0.5 mm 0.12 in3.0 mm 0.02 in0.5 mm
12:30 AM 47.7°F8.7°C 43.7°F6.5°C 86% 0.9 mph W1.4 kmh W 4.0 mph6.4 kmh 29.55 in1000.7 mb 0.03 in0.8 mm 0.12 in3.0 mm 0.03 in0.8 mm
12:35 AM 47.8°F8.8°C 43.9°F6.6°C 86% 0.9 mph W1.4 kmh W 2.9 mph4.7 kmh 29.55 in1000.7 mb 0.05 in1.3 mm 0.24 in6.1 mm 0.05 in1.3 mm
12:40 AM 48.2°F9.0°C 44.2°F6.8°C 86% 0.9 mph WNW1.4 kmh WNW 2.0 mph3.2 kmh 29.54 in1000.3 mb 0.06 in1.5 mm 0.12 in3.0 mm 0.07 in1.8 mm
12:45 AM 48.4°F9.1°C 44.4°F6.9°C 86% Calm Calm 0.9 mph1.4 kmh 29.55 in1000.7 mb 0.07 in1.8 mm 0.12 in3.0 mm 0.08 in2.0 mm
12:50 AM 48.4°F9.1°C 44.4°F6.9°C 86% Calm Calm 0.9 mph1.4 kmh 29.55 in1000.7 mb 0.08 in2.0 mm 0.12 in3.0 mm 0.09 in2.3 mm
12:55 AM 48.2°F9.0°C 44.2°F6.8°C 86% Calm Calm 2.0 mph3.2 kmh 29.54 in1000.3 mb 0.09 in2.3 mm 0.12 in3.0 mm 0.09 in2.3 mm
01:00 AM 48.0°F8.9°C 44.1°F6.7°C 86% Calm Calm -- 29.54 in1000.3 mb 0.09 in2.3 mm 0.00 in0.0 mm 0.09 in2.3 mm
01:05 AM 48.0°F8.9°C 44.1°F6.7°C 86% Calm Calm -- 29.55 in1000.7 mb 0.09 in2.3 mm 0.00 in0.0 mm 0.09 in2.3 mm
01:10 AM 48.2°F9.0°C 44.2°F6.8°C 86% Calm Calm -- 29.55 in1000.7 mb 0.09 in2.3 mm 0.00 in0.0 mm 0.10 in2.5 mm
01:15 AM 48.4°F9.1°C 44.4°F6.9°C 86% Calm Calm -- 29.55 in1000.7 mb 0.09 in2.3 mm 0.00 in0.0 mm 0.10 in2.5 mm
01:20 AM 48.6°F9.2°C 44.6°F7.0°C 86% Calm Calm -- 29.55 in1000.7 mb 0.09 in2.3 mm 0.00 in0.0 mm 0.10 in2.5 mm
01:25 AM 48.6°F9.2°C 44.6°F7.0°C 86% Calm Calm 2.0 mph3.2 kmh 29.55 in1000.7 mb 0.09 in2.3 mm 0.00 in0.0 mm 0.11 in2.8 mm
01:30 AM 48.6°F9.2°C 44.6°F7.0°C 86% Calm Calm 2.9 mph4.7 kmh 29.55 in1000.7 mb 0.08 in2.0 mm 0.00 in0.0 mm 0.11 in2.8 mm
01:35 AM 48.4°F9.1°C 44.4°F6.9°C 86% 2.0 mph W3.2 kmh W 6.9 mph11.1 kmh 29.55 in1000.7 mb 0.07 in1.8 mm 0.00 in0.0 mm 0.13 in3.3 mm
01:40 AM 48.4°F9.1°C 44.4°F6.9°C 86% 2.9 mph W4.7 kmh W 6.0 mph9.7 kmh 29.54 in1000.3 mb 0.08 in2.0 mm 0.12 in3.0 mm 0.14 in3.6 mm
01:45 AM 48.2°F9.0°C 44.2°F6.8°C 86% 2.0 mph W3.2 kmh W 2.9 mph4.7 kmh 29.54 in1000.3 mb 0.09 in2.3 mm 0.12 in3.0 mm 0.16 in4.1 mm
01:50 AM 48.0°F8.9°C 44.1°F6.7°C 86% Calm Calm 2.9 mph4.7 kmh 29.55 in1000.7 mb 0.10 in2.5 mm 0.12 in3.0 mm 0.18 in4.6 mm
01:55 AM 48.0°F8.9°C 44.1°F6.7°C 86% 0.9 mph W1.4 kmh W 7.0 mph11.3 kmh 29.56 in1001.0 mb 0.10 in2.5 mm 0.00 in0.0 mm 0.19 in4.8 mm
02:00 AM 48.0°F8.9°C 44.1°F6.7°C 86% 2.0 mph W3.2 kmh W 4.0 mph6.4 kmh 29.55 in1000.7 mb 0.11 in2.8 mm 0.01 in0.3 mm 0.20 in5.1 mm
02:05 AM 48.2°F9.0°C 44.2°F6.8°C 86% 0.9 mph W1.4 kmh W 0.9 mph1.4 kmh 29.54 in1000.3 mb 0.12 in3.0 mm 0.12 in3.0 mm 0.21 in5.3 mm
02:10 AM 48.4°F9.1°C 44.4°F6.9°C 86% Calm Calm 3.0 mph4.8 kmh 29.54 in1000.3 mb 0.11 in2.8 mm 0.00 in0.0 mm 0.21 in5.3 mm
02:15 AM 48.0°F8.9°C 44.1°F6.7°C 86% 0.9 mph WSW1.4 kmh WSW 5.0 mph8.0 kmh 29.54 in1000.3 mb 0.12 in3.0 mm 0.12 in3.0 mm 0.22 in5.6 mm
02:20 AM 47.8°F8.8°C 43.9°F6.6°C 86% 0.9 mph WSW1.4 kmh WSW 2.9 mph4.7 kmh 29.54 in1000.3 mb 0.13 in3.3 mm 0.12 in3.0 mm 0.23 in5.8 mm
02:25 AM 48.0°F8.9°C 44.1°F6.7°C 86% Calm Calm -- 29.54 in1000.3 mb 0.13 in3.3 mm 0.00 in0.0 mm 0.24 in6.1 mm
02:30 AM 48.2°F9.0°C 44.2°F6.8°C 86% Calm Calm 0.9 mph1.4 kmh 29.54 in1000.3 mb 0.13 in3.3 mm 0.00 in0.0 mm 0.24 in6.1 mm
02:35 AM 48.6°F9.2°C 44.6°F7.0°C 86% 0.9 mph SW1.4 kmh SW 4.0 mph6.4 kmh 29.56 in1001.0 mb 0.13 in3.3 mm 0.00 in0.0 mm 0.25 in6.4 mm
02:40 AM 48.7°F9.3°C 44.8°F7.1°C 86% 2.0 mph SW3.2 kmh SW 2.9 mph4.7 kmh 29.56 in1001.0 mb 0.11 in2.8 mm 0.00 in0.0 mm 0.25 in6.4 mm
02:45 AM 48.6°F9.2°C 44.6°F7.0°C 86% 2.9 mph SW4.7 kmh SW 6.0 mph9.7 kmh 29.55 in1000.7 mb 0.09 in2.3 mm 0.00 in0.0 mm 0.25 in6.4 mm
02:50 AM 48.4°F9.1°C 44.4°F6.9°C 86% 4.0 mph SSW6.4 kmh SSW 6.9 mph11.1 kmh 29.55 in1000.7 mb 0.09 in2.3 mm 0.00 in0.0 mm 0.27 in6.9 mm
02:55 AM 48.6°F9.2°C 44.6°F7.0°C 86% 2.9 mph S4.7 kmh S 6.0 mph9.7 kmh 29.53 in1000.0 mb 0.08 in2.0 mm 0.00 in0.0 mm 0.27 in6.9 mm
03:00 AM 48.7°F9.3°C 44.8°F7.1°C 86% 4.0 mph S6.4 kmh S 10.1 mph16.3 kmh 29.51 in999.3 mb 0.08 in2.0 mm 0.00 in0.0 mm 0.29 in7.4 mm
03:05 AM 48.9°F9.4°C 45.0°F7.2°C 86% 6.0 mph S9.7 kmh S 11.0 mph17.7 kmh 29.51 in999.3 mb 0.08 in2.0 mm 0.00 in0.0 mm 0.29 in7.4 mm
03:10 AM 48.9°F9.4°C 45.0°F7.2°C 86% 4.9 mph SSW7.9 kmh SSW 8.1 mph13.0 kmh 29.51 in999.3 mb 0.08 in2.0 mm 0.00 in0.0 mm 0.29 in7.4 mm
03:15 AM 48.6°F9.2°C 44.6°F7.0°C 86% 4.0 mph SW6.4 kmh SW 6.0 mph9.7 kmh 29.51 in999.3 mb 0.07 in1.8 mm 0.00 in0.0 mm 0.29 in7.4 mm
03:20 AM 48.2°F9.0°C 44.2°F6.8°C 86% 4.0 mph SSW6.4 kmh SSW 6.9 mph11.1 kmh 29.50 in999.0 mb 0.06 in1.5 mm 0.00 in0.0 mm 0.29 in7.4 mm
03:25 AM 48.2°F9.0°C 44.2°F6.8°C 86% 4.0 mph SW6.4 kmh SW 6.9 mph11.1 kmh 29.50 in999.0 mb 0.05 in1.3 mm 0.00 in0.0 mm 0.29 in7.4 mm
03:30 AM 48.4°F9.1°C 44.4°F6.9°C 86% 4.0 mph SW6.4 kmh SW 6.9 mph11.1 kmh 29.50 in999.0 mb 0.05 in1.3 mm 0.00 in0.0 mm 0.29 in7.4 mm
03:35 AM 48.4°F9.1°C 44.4°F6.9°C 86% 4.0 mph SW6.4 kmh SW 8.1 mph13.0 kmh 29.50 in999.0 mb 0.04 in1.0 mm 0.00 in0.0 mm 0.29 in7.4 mm
03:40 AM 48.4°F9.1°C 44.4°F6.9°C 86% 2.9 mph S4.7 kmh S 6.0 mph9.7 kmh 29.49 in998.6 mb 0.04 in1.0 mm 0.00 in0.0 mm 0.29 in7.4 mm
03:45 AM 48.4°F9.1°C 44.4°F6.9°C 86% 0.9 mph S1.4 kmh S -- 29.49 in998.6 mb 0.04 in1.0 mm 0.00 in0.0 mm 0.29 in7.4 mm
03:50 AM 48.4°F9.1°C 44.4°F6.9°C 86% Calm Calm -- 29.48 in998.3 mb 0.02 in0.5 mm 0.00 in0.0 mm 0.29 in7.4 mm
03:55 AM 48.4°F9.1°C 44.4°F6.9°C 86% Calm Calm 2.0 mph3.2 kmh 29.49 in998.6 mb 0.02 in0.5 mm 0.00 in0.0 mm 0.29 in7.4 mm
04:00 AM 48.4°F9.1°C 44.4°F6.9°C 86% 0.9 mph SSW1.4 kmh SSW 5.0 mph8.0 kmh 29.51 in999.3 mb 0.01 in0.3 mm 0.00 in0.0 mm 0.29 in7.4 mm
04:05 AM 48.4°F9.1°C 44.4°F6.9°C 86% 2.0 mph SW3.2 kmh SW 4.9 mph7.9 kmh 29.51 in999.3 mb 0.00 in0.0 mm 0.00 in0.0 mm 0.29 in7.4 mm
04:10 AM 48.6°F9.2°C 44.6°F7.0°C 86% 0.9 mph SW1.4 kmh SW 2.9 mph4.7 kmh 29.49 in998.6 mb 0.00 in0.0 mm 0.00 in0.0 mm 0.29 in7.4 mm
04:15 AM 48.6°F9.2°C 44.6°F7.0°C 86% 0.9 mph SW1.4 kmh SW 2.9 mph4.7 kmh 29.50 in999.0 mb 0.00 in0.0 mm 0.00 in0.0 mm 0.29 in7.4 mm
04:20 AM 48.6°F9.2°C 44.6°F7.0°C 86% 0.9 mph SW1.4 kmh SW 4.0 mph6.4 kmh 29.50 in999.0 mb 0.00 in0.0 mm 0.00 in0.0 mm 0.29 in7.4 mm
04:25 AM 48.4°F9.1°C 44.4°F6.9°C 86% 2.0 mph SW3.2 kmh SW 2.9 mph4.7 kmh 29.50 in999.0 mb 0.00 in0.0 mm 0.00 in0.0 mm 0.29 in7.4 mm
04:30 AM 48.4°F9.1°C 44.4°F6.9°C 86% 0.9 mph SW1.4 kmh SW 2.0 mph3.2 kmh 29.50 in999.0 mb 0.00 in0.0 mm 0.00 in0.0 mm 0.29 in7.4 mm
04:35 AM 48.4°F9.1°C 44.4°F6.9°C 86% Calm Calm 0.9 mph1.4 kmh 29.49 in998.6 mb 0.00 in0.0 mm 0.00 in0.0 mm 0.29 in7.4 mm
04:40 AM 48.4°F9.1°C 44.4°F6.9°C 86% Calm Calm 2.0 mph3.2 kmh 29.49 in998.6 mb 0.00 in0.0 mm 0.00 in0.0 mm 0.29 in7.4 mm
04:45 AM 48.2°F9.0°C 44.2°F6.8°C 86% Calm Calm 2.9 mph4.7 kmh 29.50 in999.0 mb 0.00 in0.0 mm 0.00 in0.0 mm 0.29 in7.4 mm
04:50 AM 48.2°F9.0°C 44.2°F6.8°C 86% Calm Calm -- 29.50 in999.0 mb 0.00 in0.0 mm 0.00 in0.0 mm 0.29 in7.4 mm
04:55 AM 48.2°F9.0°C 44.2°F6.8°C 86% Calm Calm 2.9 mph4.7 kmh 29.50 in999.0 mb 0.00 in0.0 mm 0.00 in0.0 mm 0.29 in7.4 mm
05:00 AM 48.2°F9.0°C 44.2°F6.8°C 86% Calm Calm 0.9 mph1.4 kmh 29.49 in998.6 mb 0.00 in0.0 mm 0.00 in0.0 mm 0.29 in7.4 mm
05:05 AM 48.4°F9.1°C 44.4°F6.9°C 86% Calm Calm 3.0 mph4.8 kmh 29.50 in999.0 mb 0.00 in0.0 mm 0.00 in0.0 mm 0.29 in7.4 mm
05:10 AM 48.2°F9.0°C 44.2°F6.8°C 86% 0.9 mph SW1.4 kmh SW 2.9 mph4.7 kmh 29.49 in998.6 mb 0.00 in0.0 mm 0.00 in0.0 mm 0.29 in7.4 mm
05:15 AM 48.0°F8.9°C 44.1°F6.7°C 86% 0.9 mph SW1.4 kmh SW 2.0 mph3.2 kmh 29.49 in998.6 mb 0.00 in0.0 mm 0.00 in0.0 mm 0.29 in7.4 mm
05:20 AM 47.8°F8.8°C 43.9°F6.6°C 86% 0.9 mph SW1.4 kmh SW 2.0 mph3.2 kmh 29.49 in998.6 mb 0.00 in0.0 mm 0.00 in0.0 mm 0.29 in7.4 mm
05:25 AM 47.8°F8.8°C 43.9°F6.6°C 86% Calm Calm 2.0 mph3.2 kmh 29.49 in998.6 mb 0.00 in0.0 mm 0.00 in0.0 mm 0.29 in7.4 mm
05:30 AM 48.0°F8.9°C 44.1°F6.7°C 86% 0.9 mph SW1.4 kmh SW 3.0 mph4.8 kmh 29.49 in998.6 mb 0.00 in0.0 mm 0.00 in0.0 mm 0.29 in7.4 mm
05:35 AM 47.8°F8.8°C 43.9°F6.6°C 86% 0.9 mph SW1.4 kmh SW 4.0 mph6.4 kmh 29.50 in999.0 mb 0.00 in0.0 mm 0.00 in0.0 mm 0.29 in7.4 mm
05:40 AM 47.7°F8.7°C 43.7°F6.5°C 86% 2.0 mph NW3.2 kmh NW 8.1 mph13.0 kmh 29.51 in999.3 mb 0.00 in0.0 mm 0.00 in0.0 mm 0.29 in7.4 mm
05:45 AM 47.1°F8.4°C 43.2°F6.2°C 86% 2.9 mph WNW4.7 kmh WNW 6.9 mph11.1 kmh 29.51 in999.3 mb 0.00 in0.0 mm 0.00 in0.0 mm 0.29 in7.4 mm
05:50 AM 46.9°F8.3°C 43.0°F6.1°C 86% 2.9 mph NW4.7 kmh NW 4.0 mph6.4 kmh 29.51 in999.3 mb 0.00 in0.0 mm 0.00 in0.0 mm 0.29 in7.4 mm
05:55 AM 46.8°F8.2°C 43.2°F6.2°C 87% 2.9 mph NNW4.7 kmh NNW 4.9 mph7.9 kmh 29.51 in999.3 mb 0.00 in0.0 mm 0.00 in0.0 mm 0.29 in7.4 mm
06:00 AM 46.6°F8.1°C 42.6°F5.9°C 86% 2.9 mph NNW4.7 kmh NNW 4.0 mph6.4 kmh 29.50 in999.0 mb 0.00 in0.0 mm 0.00 in0.0 mm 0.29 in7.4 mm
06:05 AM 46.6°F8.1°C 42.6°F5.9°C 86% 0.9 mph NNW1.4 kmh NNW 2.0 mph3.2 kmh 29.50 in999.0 mb 0.00 in0.0 mm 0.00 in0.0 mm 0.29 in7.4 mm
06:10 AM 46.8°F8.2°C 42.8°F6.0°C 86% 0.9 mph NNW1.4 kmh NNW 2.9 mph4.7 kmh 29.51 in999.3 mb 0.00 in0.0 mm 0.00 in0.0 mm 0.29 in7.4 mm
06:15 AM 46.9°F8.3°C 43.0°F6.1°C 86% 0.9 mph W1.4 kmh W 6.0 mph9.7 kmh 29.52 in999.7 mb 0.00 in0.0 mm 0.00 in0.0 mm 0.29 in7.4 mm
06:20 AM 47.1°F8.4°C 43.5°F6.4°C 87% 2.0 mph W3.2 kmh W 8.1 mph13.0 kmh 29.52 in999.7 mb 0.00 in0.0 mm 0.00 in0.0 mm 0.29 in7.4 mm
06:25 AM 47.5°F8.6°C 43.5°F6.4°C 86% 2.0 mph WNW3.2 kmh WNW 4.0 mph6.4 kmh 29.52 in999.7 mb 0.01 in0.3 mm 0.12 in3.0 mm 0.30 in7.6 mm
06:30 AM 47.5°F8.6°C 43.5°F6.4°C 86% 0.9 mph WNW1.4 kmh WNW 2.0 mph3.2 kmh 29.52 in999.7 mb 0.01 in0.3 mm 0.00 in0.0 mm 0.30 in7.6 mm
06:35 AM 47.7°F8.7°C 44.1°F6.7°C 87% Calm Calm 2.0 mph3.2 kmh 29.52 in999.7 mb 0.01 in0.3 mm 0.00 in0.0 mm 0.30 in7.6 mm
06:40 AM 47.7°F8.7°C 44.1°F6.7°C 87% 0.9 mph WNW1.4 kmh WNW 4.0 mph6.4 kmh 29.52 in999.7 mb 0.01 in0.3 mm 0.00 in0.0 mm 0.30 in7.6 mm
06:45 AM 47.7°F8.7°C 44.1°F6.7°C 87% 0.9 mph WNW1.4 kmh WNW 0.9 mph1.4 kmh 29.52 in999.7 mb 0.01 in0.3 mm 0.00 in0.0 mm 0.30 in7.6 mm
06:50 AM 47.3°F8.5°C 43.3°F6.3°C 86% 0.9 mph W1.4 kmh W 8.9 mph14.3 kmh 29.52 in999.7 mb 0.01 in0.3 mm 0.00 in0.0 mm 0.30 in7.6 mm
06:55 AM 46.8°F8.2°C 42.8°F6.0°C 86% 2.9 mph NNW4.7 kmh NNW 8.9 mph14.3 kmh 29.52 in999.7 mb 0.01 in0.3 mm 0.00 in0.0 mm 0.30 in7.6 mm
07:00 AM 46.4°F8.0°C 42.4°F5.8°C 86% 4.0 mph W6.4 kmh W 8.1 mph13.0 kmh 29.52 in999.7 mb 0.01 in0.3 mm 0.00 in0.0 mm 0.30 in7.6 mm
07:05 AM 46.2°F7.9°C 42.3°F5.7°C 86% 4.0 mph NW6.4 kmh NW 6.9 mph11.1 kmh 29.53 in1000.0 mb 0.01 in0.3 mm 0.00 in0.0 mm 0.30 in7.6 mm
07:10 AM 46.2°F7.9°C 42.6°F5.9°C 87% 4.0 mph W6.4 kmh W 6.0 mph9.7 kmh 29.53 in1000.0 mb 0.01 in0.3 mm 0.00 in0.0 mm 0.30 in7.6 mm
07:15 AM 46.2°F7.9°C 42.3°F5.7°C 86% 2.9 mph WNW4.7 kmh WNW 6.9 mph11.1 kmh 29.53 in1000.0 mb 0.01 in0.3 mm 0.00 in0.0 mm 0.30 in7.6 mm
07:20 AM 46.4°F8.0°C 42.8°F6.0°C 87% 2.0 mph WNW3.2 kmh WNW 2.9 mph4.7 kmh 29.54 in1000.3 mb 0.01 in0.3 mm 0.00 in0.0 mm 0.30 in7.6 mm
07:25 AM 46.6°F8.1°C 43.0°F6.1°C 87% 0.9 mph WNW1.4 kmh WNW 0.9 mph1.4 kmh 29.54 in1000.3 mb 0.00 in0.0 mm 0.00 in0.0 mm 0.30 in7.6 mm
07:30 AM 46.8°F8.2°C 43.2°F6.2°C 87% Calm Calm 0.9 mph1.4 kmh 29.54 in1000.3 mb 0.00 in0.0 mm 0.00 in0.0 mm 0.30 in7.6 mm
07:35 AM 46.8°F8.2°C 43.2°F6.2°C 87% 0.9 mph N1.4 kmh N 4.9 mph7.9 kmh 29.54 in1000.3 mb 0.00 in0.0 mm 0.00 in0.0 mm 0.30 in7.6 mm
07:40 AM 46.6°F8.1°C 43.0°F6.1°C 87% 2.0 mph WNW3.2 kmh WNW 4.0 mph6.4 kmh 29.54 in1000.3 mb 0.00 in0.0 mm 0.00 in0.0 mm 0.30 in7.6 mm
07:45 AM 46.2°F7.9°C 42.6°F5.9°C 87% 2.0 mph N3.2 kmh N 4.0 mph6.4 kmh 29.54 in1000.3 mb 0.00 in0.0 mm 0.00 in0.0 mm 0.30 in7.6 mm
07:50 AM 46.0°F7.8°C 42.1°F5.6°C 86% 2.0 mph WNW3.2 kmh WNW 6.0 mph9.7 kmh 29.55 in1000.7 mb 0.00 in0.0 mm 0.00 in0.0 mm 0.30 in7.6 mm
07:55 AM 46.0°F7.8°C 42.1°F5.6°C 86% 2.9 mph WNW4.7 kmh WNW 8.1 mph13.0 kmh 29.55 in1000.7 mb 0.00 in0.0 mm 0.00 in0.0 mm 0.30 in7.6 mm
08:00 AM 46.4°F8.0°C 42.8°F6.0°C 87% 4.0 mph 6.4 kmh 9.0 mph14.5 kmh 29.55 in1000.7 mb 0.00 in0.0 mm 0.00 in0.0 mm 0.30 in7.6 mm
08:05 AM 47.5°F8.6°C 43.9°F6.6°C 87% 2.9 mph N4.7 kmh N 8.1 mph13.0 kmh 29.56 in1001.0 mb 0.00 in0.0 mm 0.00 in0.0 mm 0.30 in7.6 mm
08:10 AM 47.8°F8.8°C 44.2°F6.8°C 87% 2.9 mph NW4.7 kmh NW 8.9 mph14.3 kmh 29.57 in1001.4 mb 0.00 in0.0 mm 0.00 in0.0 mm 0.30 in7.6 mm
08:15 AM 48.2°F9.0°C 44.6°F7.0°C 87% 4.0 mph N6.4 kmh N 8.1 mph13.0 kmh 29.56 in1001.0 mb 0.00 in0.0 mm 0.00 in0.0 mm 0.30 in7.6 mm
08:20 AM 48.0°F8.9°C 44.4°F6.9°C 87% 4.0 mph NNE6.4 kmh NNE 8.1 mph13.0 kmh 29.57 in1001.4 mb 0.00 in0.0 mm 0.00 in0.0 mm 0.30 in7.6 mm
08:25 AM 48.0°F8.9°C 44.1°F6.7°C 86% 2.9 mph NW4.7 kmh NW 6.0 mph9.7 kmh 29.57 in1001.4 mb 0.00 in0.0 mm 0.00 in0.0 mm 0.30 in7.6 mm
08:30 AM 48.0°F8.9°C 44.1°F6.7°C 86% 2.9 mph NW4.7 kmh NW 8.1 mph13.0 kmh 29.57 in1001.4 mb 0.00 in0.0 mm 0.00 in0.0 mm 0.30 in7.6 mm
08:35 AM 48.2°F9.0°C 44.2°F6.8°C 86% 2.9 mph WNW4.7 kmh WNW 8.1 mph13.0 kmh 29.58 in1001.7 mb 0.00 in0.0 mm 0.00 in0.0 mm 0.30 in7.6 mm
08:40 AM 48.4°F9.1°C 44.8°F7.1°C 87% 2.9 mph 4.7 kmh 6.0 mph9.7 kmh 29.58 in1001.7 mb 0.00 in0.0 mm 0.00 in0.0 mm 0.30 in7.6 mm
08:45 AM 48.6°F9.2°C 44.8°F7.1°C 87% 2.0 mph NNW3.2 kmh NNW 4.0 mph6.4 kmh 29.58 in1001.7 mb 0.00 in0.0 mm 0.00 in0.0 mm 0.30 in7.6 mm
08:50 AM 48.7°F9.3°C 44.8°F7.1°C 86% 2.0 mph NW3.2 kmh NW 4.0 mph6.4 kmh 29.58 in1001.7 mb 0.00 in0.0 mm 0.00 in0.0 mm 0.30 in7.6 mm
08:55 AM 49.3°F9.6°C 45.5°F7.5°C 87% 2.0 mph NNE3.2 kmh NNE 4.0 mph6.4 kmh 29.59 in1002.0 mb 0.00 in0.0 mm 0.00 in0.0 mm 0.30 in7.6 mm
09:00 AM 49.6°F9.8°C 45.7°F7.6°C 86% 0.9 mph NW1.4 kmh NW 4.0 mph6.4 kmh 29.59 in1002.0 mb 0.00 in0.0 mm 0.00 in0.0 mm 0.30 in7.6 mm
09:05 AM 49.6°F9.8°C 45.7°F7.6°C 86% 0.9 mph N1.4 kmh N 2.9 mph4.7 kmh 29.59 in1002.0 mb 0.00 in0.0 mm 0.00 in0.0 mm 0.30 in7.6 mm
09:10 AM 50.0°F10.0°C 46.0°F7.8°C 86% 0.9 mph 1.4 kmh 2.9 mph4.7 kmh 29.60 in1002.4 mb 0.00 in0.0 mm 0.00 in0.0 mm 0.30 in7.6 mm
09:15 AM 50.2°F10.1°C 46.2°F7.9°C 86% 0.9 mph 1.4 kmh 4.9 mph7.9 kmh 29.60 in1002.4 mb 0.00 in0.0 mm 0.00 in0.0 mm 0.30 in7.6 mm
09:20 AM 50.5°F10.3°C 46.6°F8.1°C 86% 2.9 mph NNE4.7 kmh NNE 6.0 mph9.7 kmh 29.60 in1002.4 mb 0.00 in0.0 mm 0.00 in0.0 mm 0.30 in7.6 mm
09:25 AM 50.5°F10.3°C 46.6°F8.1°C 86% 4.0 mph NNE6.4 kmh NNE 6.0 mph9.7 kmh 29.60 in1002.4 mb 0.00 in0.0 mm 0.00 in0.0 mm 0.30 in7.6 mm
09:30 AM 50.9°F10.5°C 46.9°F8.3°C 86% 4.0 mph NNE6.4 kmh NNE 6.9 mph11.1 kmh 29.60 in1002.4 mb 0.00 in0.0 mm 0.00 in0.0 mm 0.30 in7.6 mm
09:35 AM 51.1°F10.6°C 47.1°F8.4°C 86% 2.9 mph NNE4.7 kmh NNE 8.9 mph14.3 kmh 29.61 in1002.7 mb 0.00 in0.0 mm 0.00 in0.0 mm 0.30 in7.6 mm
09:40 AM 51.3°F10.7°C 47.3°F8.5°C 86% 4.0 mph N6.4 kmh N 12.1 mph19.5 kmh 29.61 in1002.7 mb 0.00 in0.0 mm 0.00 in0.0 mm 0.30 in7.6 mm
09:45 AM 51.4°F10.8°C 47.5°F8.6°C 86% 6.0 mph NNE9.7 kmh NNE 11.0 mph17.7 kmh 29.62 in1003.0 mb 0.00 in0.0 mm 0.00 in0.0 mm 0.30 in7.6 mm
09:50 AM 51.4°F10.8°C 47.1°F8.4°C 85% 6.9 mph N11.1 kmh N 13.0 mph20.9 kmh 29.62 in1003.0 mb 0.00 in0.0 mm 0.00 in0.0 mm 0.30 in7.6 mm
09:55 AM 51.4°F10.8°C 47.1°F8.4°C 85% 8.1 mph NE13.0 kmh NE 14.1 mph22.7 kmh 29.62 in1003.0 mb 0.00 in0.0 mm 0.00 in0.0 mm 0.30 in7.6 mm
10:00 AM 51.6°F10.9°C 47.3°F8.5°C 85% 8.1 mph NNW13.0 kmh NNW 13.0 mph20.9 kmh 29.62 in1003.0 mb 0.00 in0.0 mm 0.00 in0.0 mm 0.30 in7.6 mm
10:05 AM 51.6°F10.9°C 46.9°F8.3°C 84% 6.9 mph ENE11.1 kmh ENE 14.1 mph22.7 kmh 29.62 in1003.0 mb 0.00 in0.0 mm 0.00 in0.0 mm 0.30 in7.6 mm
10:10 AM 52.0°F11.1°C 47.3°F8.5°C 84% 8.1 mph NW13.0 kmh NW 13.0 mph20.9 kmh 29.62 in1003.0 mb 0.00 in0.0 mm 0.00 in0.0 mm 0.30 in7.6 mm
10:15 AM 51.8°F11.0°C 47.1°F8.4°C 84% 8.9 mph NW14.3 kmh NW 15.0 mph24.1 kmh 29.61 in1002.7 mb 0.00 in0.0 mm 0.00 in0.0 mm 0.30 in7.6 mm
10:20 AM 52.0°F11.1°C 47.3°F8.5°C 84% 8.1 mph N13.0 kmh N 13.0 mph20.9 kmh 29.62 in1003.0 mb 0.00 in0.0 mm 0.00 in0.0 mm 0.30 in7.6 mm
10:25 AM 52.0°F11.1°C 46.9°F8.3°C 83% 6.9 mph N11.1 kmh N 13.0 mph20.9 kmh 29.62 in1003.0 mb 0.00 in0.0 mm 0.00 in0.0 mm 0.30 in7.6 mm
10:30 AM 52.2°F11.2°C 47.1°F8.4°C 83% 6.9 mph NW11.1 kmh NW 13.0 mph20.9 kmh 29.62 in1003.0 mb 0.00 in0.0 mm 0.00 in0.0 mm 0.30 in7.6 mm
10:35 AM 52.2°F11.2°C 47.1°F8.4°C 83% 6.0 mph N9.7 kmh N 14.1 mph22.7 kmh 29.63 in1003.4 mb 0.00 in0.0 mm 0.00 in0.0 mm 0.30 in7.6 mm
10:40 AM 52.3°F11.3°C 47.3°F8.5°C 83% 6.0 mph N9.7 kmh N 13.0 mph20.9 kmh 29.63 in1003.4 mb 0.00 in0.0 mm 0.00 in0.0 mm 0.30 in7.6 mm
10:45 AM 52.3°F11.3°C 47.3°F8.5°C 83% 6.9 mph NNW11.1 kmh NNW 11.0 mph17.7 kmh 29.63 in1003.4 mb 0.00 in0.0 mm 0.00 in0.0 mm 0.30 in7.6 mm
10:50 AM 52.3°F11.3°C 47.3°F8.5°C 83% 6.0 mph N9.7 kmh N 13.0 mph20.9 kmh 29.63 in1003.4 mb 0.00 in0.0 mm 0.00 in0.0 mm 0.30 in7.6 mm
10:55 AM 52.5°F11.4°C 47.1°F8.4°C 82% 6.9 mph NNW11.1 kmh NNW 12.1 mph19.5 kmh 29.63 in1003.4 mb 0.00 in0.0 mm 0.00 in0.0 mm 0.30 in7.6 mm
11:00 AM 52.9°F11.6°C 47.5°F8.6°C 82% 6.9 mph N11.1 kmh N 10.1 mph16.3 kmh 29.63 in1003.4 mb 0.00 in0.0 mm 0.00 in0.0 mm 0.30 in7.6 mm
11:05 AM 53.1°F11.7°C 47.7°F8.7°C 82% 6.0 mph NNE9.7 kmh NNE 11.0 mph17.7 kmh 29.63 in1003.4 mb 0.00 in0.0 mm 0.00 in0.0 mm 0.30 in7.6 mm
11:10 AM 53.2°F11.8°C 47.8°F8.8°C 82% 6.0 mph N9.7 kmh N 13.0 mph20.9 kmh 29.63 in1003.4 mb 0.00 in0.0 mm 0.00 in0.0 mm 0.30 in7.6 mm
11:15 AM 53.1°F11.7°C 47.7°F8.7°C 82% 8.1 mph N13.0 kmh N 13.0 mph20.9 kmh 29.62 in1003.0 mb 0.00 in0.0 mm 0.00 in0.0 mm 0.30 in7.6 mm
11:20 AM 53.1°F11.7°C 47.7°F8.7°C 82% 8.9 mph N14.3 kmh N 14.1 mph22.7 kmh 29.63 in1003.4 mb 0.00 in0.0 mm 0.00 in0.0 mm 0.30 in7.6 mm
11:25 AM 53.2°F11.8°C 47.8°F8.8°C 82% 8.9 mph NE14.3 kmh NE 14.1 mph22.7 kmh 29.62 in1003.0 mb 0.00 in0.0 mm 0.00 in0.0 mm 0.30 in7.6 mm
11:30 AM 53.2°F11.8°C 47.5°F8.6°C 81% 8.9 mph NE14.3 kmh NE 15.0 mph24.1 kmh 29.63 in1003.4 mb 0.00 in0.0 mm 0.00 in0.0 mm 0.30 in7.6 mm
11:35 AM 53.4°F11.9°C 47.7°F8.7°C 81% 8.9 mph NE14.3 kmh NE 16.0 mph25.7 kmh 29.63 in1003.4 mb 0.00 in0.0 mm 0.00 in0.0 mm 0.30 in7.6 mm
11:40 AM 53.4°F11.9°C 47.7°F8.7°C 81% 8.9 mph ENE14.3 kmh ENE 14.1 mph22.7 kmh 29.63 in1003.4 mb 0.00 in0.0 mm 0.00 in0.0 mm 0.30 in7.6 mm
11:45 AM 53.4°F11.9°C 47.7°F8.7°C 81% 8.1 mph N13.0 kmh N 14.1 mph22.7 kmh 29.64 in1003.7 mb 0.00 in0.0 mm 0.00 in0.0 mm 0.30 in7.6 mm
11:50 AM 53.4°F11.9°C 47.7°F8.7°C 81% 8.1 mph N13.0 kmh N 15.0 mph24.1 kmh 29.64 in1003.7 mb 0.00 in0.0 mm 0.00 in0.0 mm 0.30 in7.6 mm
11:55 AM 53.4°F11.9°C 47.5°F8.6°C 80% 8.1 mph NE13.0 kmh NE 14.1 mph22.7 kmh 29.64 in1003.7 mb 0.00 in0.0 mm 0.00 in0.0 mm 0.30 in7.6 mm
12:00 PM 53.4°F11.9°C 47.7°F8.7°C 81% 8.1 mph NNE13.0 kmh NNE 13.0 mph20.9 kmh 29.64 in1003.7 mb 0.00 in0.0 mm 0.00 in0.0 mm 0.30 in7.6 mm
12:05 PM 53.4°F11.9°C 47.5°F8.6°C 80% 8.1 mph NNE13.0 kmh NNE 13.0 mph20.9 kmh 29.64 in1003.7 mb 0.00 in0.0 mm 0.00 in0.0 mm 0.30 in7.6 mm
12:10 PM 53.8°F12.1°C 47.8°F8.8°C 80% 8.1 mph NNE13.0 kmh NNE 12.1 mph19.5 kmh 29.64 in1003.7 mb 0.00 in0.0 mm 0.00 in0.0 mm 0.30 in7.6 mm
12:15 PM 53.6°F12.0°C 47.7°F8.7°C 80% 8.1 mph N13.0 kmh N 13.0 mph20.9 kmh 29.64 in1003.7 mb 0.00 in0.0 mm 0.00 in0.0 mm 0.30 in7.6 mm
12:20 PM 53.4°F11.9°C 47.5°F8.6°C 80% 8.1 mph N13.0 kmh N 13.0 mph20.9 kmh 29.64 in1003.7 mb 0.00 in0.0 mm 0.00 in0.0 mm 0.30 in7.6 mm
12:25 PM 53.4°F11.9°C 47.5°F8.6°C 80% 8.1 mph NNE13.0 kmh NNE 12.1 mph19.5 kmh 29.65 in1004.1 mb 0.00 in0.0 mm 0.00 in0.0 mm 0.30 in7.6 mm
12:30 PM 53.8°F12.1°C 47.8°F8.8°C 80% 6.9 mph NNE11.1 kmh NNE 14.1 mph22.7 kmh 29.65 in1004.1 mb 0.00 in0.0 mm 0.00 in0.0 mm 0.30 in7.6 mm
12:35 PM 54.0°F12.2°C 48.0°F8.9°C 80% 8.1 mph N13.0 kmh N 13.0 mph20.9 kmh 29.65 in1004.1 mb 0.00 in0.0 mm 0.00 in0.0 mm 0.30 in7.6 mm
12:40 PM 53.6°F12.0°C 47.7°F8.7°C 80% 8.1 mph NNE13.0 kmh NNE 15.0 mph24.1 kmh 29.65 in1004.1 mb 0.00 in0.0 mm 0.00 in0.0 mm 0.30 in7.6 mm
12:45 PM 53.4°F11.9°C 47.5°F8.6°C 80% 8.1 mph NE13.0 kmh NE 14.1 mph22.7 kmh 29.65 in1004.1 mb 0.00 in0.0 mm 0.00 in0.0 mm 0.30 in7.6 mm
12:50 PM 53.1°F11.7°C 47.3°F8.5°C 81% 8.9 mph N14.3 kmh N 14.1 mph22.7 kmh 29.65 in1004.1 mb 0.00 in0.0 mm 0.00 in0.0 mm 0.30 in7.6 mm
12:55 PM 52.9°F11.6°C 47.3°F8.5°C 81% 8.9 mph NNE14.3 kmh NNE 15.0 mph24.1 kmh 29.65 in1004.1 mb 0.00 in0.0 mm 0.00 in0.0 mm 0.30 in7.6 mm
01:00 PM 52.3°F11.3°C 46.9°F8.3°C 82% 10.1 mph NNE16.3 kmh NNE 15.0 mph24.1 kmh 29.65 in1004.1 mb 0.00 in0.0 mm 0.00 in0.0 mm 0.30 in7.6 mm
01:05 PM 52.2°F11.2°C 46.8°F8.2°C 82% 10.1 mph NE16.3 kmh NE 16.1 mph25.9 kmh 29.65 in1004.1 mb 0.00 in0.0 mm 0.00 in0.0 mm 0.30 in7.6 mm
01:10 PM 52.0°F11.1°C 46.6°F8.1°C 82% 10.1 mph ENE16.3 kmh ENE 16.1 mph25.9 kmh 29.65 in1004.1 mb 0.00 in0.0 mm 0.00 in0.0 mm 0.30 in7.6 mm
01:15 PM 51.8°F11.0°C 46.4°F8.0°C 82% 10.1 mph NNW16.3 kmh NNW 17.0 mph27.4 kmh 29.65 in1004.1 mb 0.00 in0.0 mm 0.00 in0.0 mm 0.30 in7.6 mm
01:20 PM 51.8°F11.0°C 46.4°F8.0°C 82% 10.1 mph N16.3 kmh N 14.1 mph22.7 kmh 29.65 in1004.1 mb 0.00 in0.0 mm 0.00 in0.0 mm 0.30 in7.6 mm
01:25 PM 51.6°F10.9°C 46.2°F7.9°C 82% 8.9 mph NE14.3 kmh NE 16.1 mph25.9 kmh 29.65 in1004.1 mb 0.00 in0.0 mm 0.00 in0.0 mm 0.30 in7.6 mm
01:30 PM 51.6°F10.9°C 46.6°F8.1°C 83% 8.9 mph N14.3 kmh N 14.1 mph22.7 kmh 29.65 in1004.1 mb 0.00 in0.0 mm 0.00 in0.0 mm 0.30 in7.6 mm
01:35 PM 51.8°F11.0°C 46.8°F8.2°C 83% 8.9 mph N14.3 kmh N 17.0 mph27.4 kmh 29.66 in1004.4 mb 0.00 in0.0 mm 0.00 in0.0 mm 0.30 in7.6 mm
01:40 PM 51.6°F10.9°C 46.6°F8.1°C 83% 10.1 mph NE16.3 kmh NE 15.0 mph24.1 kmh 29.66 in1004.4 mb 0.00 in0.0 mm 0.00 in0.0 mm 0.30 in7.6 mm
01:45 PM 51.3°F10.7°C 46.2°F7.9°C 83% 10.1 mph NNE16.3 kmh NNE 17.0 mph27.4 kmh 29.65 in1004.1 mb 0.00 in0.0 mm 0.00 in0.0 mm 0.30 in7.6 mm
01:50 PM 51.3°F10.7°C 46.2°F7.9°C 83% 10.1 mph NNE16.3 kmh NNE 17.0 mph27.4 kmh 29.65 in1004.1 mb 0.00 in0.0 mm 0.00 in0.0 mm 0.30 in7.6 mm
01:55 PM 51.1°F10.6°C 46.0°F7.8°C 83% 10.1 mph NNE16.3 kmh NNE 17.0 mph27.4 kmh 29.65 in1004.1 mb 0.00 in0.0 mm 0.00 in0.0 mm 0.30 in7.6 mm
02:00 PM 51.1°F10.6°C 46.0°F7.8°C 83% 10.1 mph N16.3 kmh N 14.1 mph22.7 kmh 29.66 in1004.4 mb 0.00 in0.0 mm 0.00 in0.0 mm 0.30 in7.6 mm
02:05 PM 51.1°F10.6°C 46.0°F7.8°C 83% 8.9 mph NE14.3 kmh NE 15.0 mph24.1 kmh 29.65 in1004.1 mb 0.00 in0.0 mm 0.00 in0.0 mm 0.30 in7.6 mm
02:10 PM 51.1°F10.6°C 46.0°F7.8°C 83% 10.1 mph NNE16.3 kmh NNE 15.0 mph24.1 kmh 29.65 in1004.1 mb 0.00 in0.0 mm 0.00 in0.0 mm 0.30 in7.6 mm
02:15 PM 51.1°F10.6°C 46.0°F7.8°C 83% 8.9 mph N14.3 kmh N 15.0 mph24.1 kmh 29.65 in1004.1 mb 0.00 in0.0 mm 0.00 in0.0 mm 0.30 in7.6 mm
02:20 PM 51.3°F10.7°C 46.2°F7.9°C 83% 8.1 mph N13.0 kmh N 12.1 mph19.5 kmh 29.65 in1004.1 mb 0.00 in0.0 mm 0.00 in0.0 mm 0.30 in7.6 mm
02:25 PM 51.3°F10.7°C 46.2°F7.9°C 83% 8.1 mph N13.0 kmh N 14.0 mph22.5 kmh 29.65 in1004.1 mb 0.00 in0.0 mm 0.00 in0.0 mm 0.30 in7.6 mm
02:30 PM 51.3°F10.7°C 46.2°F7.9°C 83% 6.9 mph NE11.1 kmh NE 12.1 mph19.5 kmh 29.65 in1004.1 mb 0.00 in0.0 mm 0.00 in0.0 mm 0.30 in7.6 mm
02:35 PM 51.1°F10.6°C 46.0°F7.8°C 83% 6.9 mph NNW11.1 kmh NNW 14.1 mph22.7 kmh 29.65 in1004.1 mb 0.00 in0.0 mm 0.00 in0.0 mm 0.30 in7.6 mm
02:40 PM 51.1°F10.6°C 46.0°F7.8°C 83% 6.9 mph N11.1 kmh N 11.0 mph17.7 kmh 29.65 in1004.1 mb 0.00 in0.0 mm 0.00 in0.0 mm 0.30 in7.6 mm
02:45 PM 51.1°F10.6°C 46.0°F7.8°C 83% 6.0 mph NE9.7 kmh NE 10.1 mph16.3 kmh 29.65 in1004.1 mb 0.00 in0.0 mm 0.00 in0.0 mm 0.30 in7.6 mm
02:50 PM 51.1°F10.6°C 46.0°F7.8°C 83% 6.9 mph N11.1 kmh N 13.0 mph20.9 kmh 29.65 in1004.1 mb 0.00 in0.0 mm 0.00 in0.0 mm 0.30 in7.6 mm
02:55 PM 51.1°F10.6°C 45.9°F7.7°C 82% 6.9 mph NNE11.1 kmh NNE 13.0 mph20.9 kmh 29.65 in1004.1 mb 0.00 in0.0 mm 0.00 in0.0 mm 0.30 in7.6 mm
03:00 PM 51.1°F10.6°C 45.9°F7.7°C 82% 6.9 mph N11.1 kmh N 13.0 mph20.9 kmh 29.65 in1004.1 mb 0.00 in0.0 mm 0.00 in0.0 mm 0.30 in7.6 mm
03:05 PM 50.9°F10.5°C 45.7°F7.6°C 82% 6.9 mph N11.1 kmh N 12.1 mph19.5 kmh 29.66 in1004.4 mb 0.00 in0.0 mm 0.00 in0.0 mm 0.30 in7.6 mm
03:10 PM 50.9°F10.5°C 45.9°F7.7°C 83% 6.9 mph NNW11.1 kmh NNW 10.1 mph16.3 kmh 29.66 in1004.4 mb 0.00 in0.0 mm 0.00 in0.0 mm 0.30 in7.6 mm
03:15 PM 50.9°F10.5°C 45.9°F7.7°C 83% 6.9 mph N11.1 kmh N 12.1 mph19.5 kmh 29.66 in1004.4 mb 0.00 in0.0 mm 0.00 in0.0 mm 0.30 in7.6 mm
03:20 PM 50.9°F10.5°C 45.9°F7.7°C 83% 6.0 mph NNE9.7 kmh NNE 11.0 mph17.7 kmh 29.66 in1004.4 mb 0.00 in0.0 mm 0.00 in0.0 mm 0.30 in7.6 mm
03:25 PM 50.9°F10.5°C 45.7°F7.6°C 82% 6.0 mph N9.7 kmh N 10.1 mph16.3 kmh 29.66 in1004.4 mb 0.00 in0.0 mm 0.00 in0.0 mm 0.30 in7.6 mm
03:30 PM 50.9°F10.5°C 45.7°F7.6°C 82% 4.0 mph N6.4 kmh N 6.0 mph9.7 kmh 29.67 in1004.7 mb 0.00 in0.0 mm 0.00 in0.0 mm 0.30 in7.6 mm
03:35 PM 50.7°F10.4°C 45.5°F7.5°C 82% 2.9 mph N4.7 kmh N 6.0 mph9.7 kmh 29.67 in1004.7 mb 0.00 in0.0 mm 0.00 in0.0 mm 0.30 in7.6 mm
03:40 PM 50.9°F10.5°C 45.7°F7.6°C 82% 2.0 mph NNW3.2 kmh NNW 4.0 mph6.4 kmh 29.67 in1004.7 mb 0.00 in0.0 mm 0.00 in0.0 mm 0.30 in7.6 mm
03:45 PM 50.9°F10.5°C 45.7°F7.6°C 82% 0.9 mph N1.4 kmh N 4.0 mph6.4 kmh 29.67 in1004.7 mb 0.00 in0.0 mm 0.00 in0.0 mm 0.30 in7.6 mm
03:50 PM 51.1°F10.6°C 45.9°F7.7°C 82% 0.9 mph N1.4 kmh N 4.0 mph6.4 kmh 29.67 in1004.7 mb 0.00 in0.0 mm 0.00 in0.0 mm 0.30 in7.6 mm
03:55 PM 51.1°F10.6°C 45.9°F7.7°C 82% 2.0 mph 3.2 kmh 4.0 mph6.4 kmh 29.67 in1004.7 mb 0.00 in0.0 mm 0.00 in0.0 mm 0.30 in7.6 mm
04:00 PM 51.3°F10.7°C 46.0°F7.8°C 82% 0.9 mph 1.4 kmh 2.9 mph4.7 kmh 29.67 in1004.7 mb 0.00 in0.0 mm 0.00 in0.0 mm 0.30 in7.6 mm
04:05 PM 51.3°F10.7°C 46.0°F7.8°C 82% 0.9 mph 1.4 kmh 2.9 mph4.7 kmh 29.67 in1004.7 mb 0.00 in0.0 mm 0.00 in0.0 mm 0.30 in7.6 mm
04:10 PM 51.3°F10.7°C 46.0°F7.8°C 82% 0.9 mph WNW1.4 kmh WNW 7.0 mph11.3 kmh 29.67 in1004.7 mb 0.00 in0.0 mm 0.00 in0.0 mm 0.30 in7.6 mm
04:15 PM 51.1°F10.6°C 45.9°F7.7°C 82% 2.0 mph WNW3.2 kmh WNW 4.9 mph7.9 kmh 29.67 in1004.7 mb 0.00 in0.0 mm 0.00 in0.0 mm 0.30 in7.6 mm
04:20 PM 50.9°F10.5°C 45.7°F7.6°C 82% 2.0 mph NW3.2 kmh NW 4.0 mph6.4 kmh 29.67 in1004.7 mb 0.00 in0.0 mm 0.00 in0.0 mm 0.30 in7.6 mm
04:25 PM 50.9°F10.5°C 45.7°F7.6°C 82% 2.0 mph WNW3.2 kmh WNW 6.0 mph9.7 kmh 29.67 in1004.7 mb 0.00 in0.0 mm 0.00 in0.0 mm 0.30 in7.6 mm
04:30 PM 50.7°F10.4°C 45.1°F7.3°C 81% 2.9 mph W4.7 kmh W 10.1 mph16.3 kmh 29.67 in1004.7 mb 0.00 in0.0 mm 0.00 in0.0 mm 0.30 in7.6 mm
04:35 PM 50.5°F10.3°C 45.0°F7.2°C 81% 4.0 mph W6.4 kmh W 10.1 mph16.3 kmh 29.67 in1004.7 mb 0.00 in0.0 mm 0.00 in0.0 mm 0.30 in7.6 mm
04:40 PM 50.5°F10.3°C 45.3°F7.4°C 82% 4.9 mph NNW7.9 kmh NNW 10.1 mph16.3 kmh 29.67 in1004.7 mb 0.00 in0.0 mm 0.00 in0.0 mm 0.30 in7.6 mm
04:45 PM 50.5°F10.3°C 45.3°F7.4°C 82% 4.0 mph WNW6.4 kmh WNW 8.9 mph14.3 kmh 29.67 in1004.7 mb 0.00 in0.0 mm 0.00 in0.0 mm 0.30 in7.6 mm
04:50 PM 50.5°F10.3°C 45.3°F7.4°C 82% 4.0 mph W6.4 kmh W 6.9 mph11.1 kmh 29.67 in1004.7 mb 0.00 in0.0 mm 0.00 in0.0 mm 0.30 in7.6 mm
04:55 PM 50.5°F10.3°C 45.3°F7.4°C 82% 4.0 mph W6.4 kmh W 11.0 mph17.7 kmh 29.67 in1004.7 mb 0.00 in0.0 mm 0.00 in0.0 mm 0.30 in7.6 mm
05:00 PM 50.4°F10.2°C 45.1°F7.3°C 82% 4.9 mph W7.9 kmh W 14.1 mph22.7 kmh 29.67 in1004.7 mb 0.00 in0.0 mm 0.00 in0.0 mm 0.30 in7.6 mm
05:05 PM 50.4°F10.2°C 45.1°F7.3°C 82% 6.9 mph WSW11.1 kmh WSW 11.0 mph17.7 kmh 29.68 in1005.1 mb 0.00 in0.0 mm 0.00 in0.0 mm 0.30 in7.6 mm
05:10 PM 50.2°F10.1°C 45.0°F7.2°C 82% 6.9 mph W11.1 kmh W 13.0 mph20.9 kmh 29.68 in1005.1 mb 0.00 in0.0 mm 0.00 in0.0 mm 0.30 in7.6 mm
05:15 PM 50.2°F10.1°C 45.0°F7.2°C 82% 8.1 mph WNW13.0 kmh WNW 15.0 mph24.1 kmh 29.68 in1005.1 mb 0.00 in0.0 mm 0.00 in0.0 mm 0.30 in7.6 mm
05:20 PM 50.2°F10.1°C 45.0°F7.2°C 82% 8.1 mph NW13.0 kmh NW 14.1 mph22.7 kmh 29.69 in1005.4 mb 0.00 in0.0 mm 0.00 in0.0 mm 0.30 in7.6 mm
05:25 PM 50.2°F10.1°C 45.0°F7.2°C 82% 8.1 mph WSW13.0 kmh WSW 14.1 mph22.7 kmh 29.69 in1005.4 mb 0.00 in0.0 mm 0.00 in0.0 mm 0.30 in7.6 mm
05:30 PM 50.2°F10.1°C 45.0°F7.2°C 82% 6.9 mph NW11.1 kmh NW 12.1 mph19.5 kmh 29.69 in1005.4 mb 0.00 in0.0 mm 0.00 in0.0 mm 0.30 in7.6 mm
05:35 PM 50.2°F10.1°C 45.0°F7.2°C 82% 4.9 mph WNW7.9 kmh WNW 11.0 mph17.7 kmh 29.69 in1005.4 mb 0.00 in0.0 mm 0.00 in0.0 mm 0.30 in7.6 mm
05:40 PM 50.2°F10.1°C 45.0°F7.2°C 82% 4.9 mph NW7.9 kmh NW 11.0 mph17.7 kmh 29.69 in1005.4 mb 0.00 in0.0 mm 0.00 in0.0 mm 0.30 in7.6 mm
05:45 PM 50.2°F10.1°C 45.0°F7.2°C 82% 4.0 mph NW6.4 kmh NW 8.1 mph13.0 kmh 29.70 in1005.8 mb 0.00 in0.0 mm 0.00 in0.0 mm 0.30 in7.6 mm
05:50 PM 50.2°F10.1°C 45.0°F7.2°C 82% 4.0 mph WNW6.4 kmh WNW 10.1 mph16.3 kmh 29.70 in1005.8 mb 0.00 in0.0 mm 0.00 in0.0 mm 0.30 in7.6 mm
05:55 PM 50.2°F10.1°C 45.0°F7.2°C 82% 4.9 mph W7.9 kmh W 10.1 mph16.3 kmh 29.70 in1005.8 mb 0.00 in0.0 mm 0.00 in0.0 mm 0.30 in7.6 mm
06:00 PM 50.2°F10.1°C 45.0°F7.2°C 82% 6.0 mph W9.7 kmh W 10.1 mph16.3 kmh 29.70 in1005.8 mb 0.01 in0.3 mm 0.01 in0.3 mm 0.31 in7.9 mm
06:05 PM 50.2°F10.1°C 45.0°F7.2°C 82% 6.0 mph WSW9.7 kmh WSW 10.1 mph16.3 kmh 29.70 in1005.8 mb 0.01 in0.3 mm 0.00 in0.0 mm 0.31 in7.9 mm
06:10 PM 50.0°F10.0°C 44.8°F7.1°C 82% 4.9 mph W7.9 kmh W 8.1 mph13.0 kmh 29.70 in1005.8 mb 0.01 in0.3 mm 0.00 in0.0 mm 0.31 in7.9 mm
06:15 PM 50.0°F10.0°C 45.0°F7.2°C 83% 4.0 mph WNW6.4 kmh WNW 6.0 mph9.7 kmh 29.70 in1005.8 mb 0.02 in0.5 mm 0.12 in3.0 mm 0.32 in8.1 mm
06:20 PM 50.0°F10.0°C 45.0°F7.2°C 83% 2.0 mph NW3.2 kmh NW 6.0 mph9.7 kmh 29.70 in1005.8 mb 0.03 in0.8 mm 0.12 in3.0 mm 0.33 in8.4 mm
06:25 PM 50.0°F10.0°C 45.0°F7.2°C 83% 0.9 mph NW1.4 kmh NW 2.9 mph4.7 kmh 29.70 in1005.8 mb 0.03 in0.8 mm 0.00 in0.0 mm 0.33 in8.4 mm
06:30 PM 49.8°F9.9°C 44.8°F7.1°C 83% 0.9 mph NW1.4 kmh NW 2.0 mph3.2 kmh 29.70 in1005.8 mb 0.03 in0.8 mm 0.00 in0.0 mm 0.33 in8.4 mm
06:35 PM 49.8°F9.9°C 44.8°F7.1°C 83% Calm Calm 0.9 mph1.4 kmh 29.70 in1005.8 mb 0.03 in0.8 mm 0.00 in0.0 mm 0.33 in8.4 mm
06:40 PM 49.8°F9.9°C 44.8°F7.1°C 83% Calm Calm -- 29.70 in1005.8 mb 0.04 in1.0 mm 0.12 in3.0 mm 0.34 in8.6 mm
06:46 PM 49.8°F9.9°C 44.8°F7.1°C 83% Calm Calm -- 29.70 in1005.8 mb 0.05 in1.3 mm 0.10 in2.5 mm 0.35 in8.9 mm
06:51 PM 49.8°F9.9°C 45.1°F7.3°C 84% Calm Calm -- 29.70 in1005.8 mb 0.05 in1.3 mm 0.00 in0.0 mm 0.35 in8.9 mm
06:56 PM 50.0°F10.0°C 45.3°F7.4°C 84% Calm Calm 1.0 mph1.6 kmh 29.71 in1006.1 mb 0.05 in1.3 mm 0.00 in0.0 mm 0.35 in8.9 mm
07:01 PM 50.0°F10.0°C 45.3°F7.4°C 84% Calm Calm 2.0 mph3.2 kmh 29.71 in1006.1 mb 0.04 in1.0 mm 0.00 in0.0 mm 0.35 in8.9 mm
07:06 PM 49.8°F9.9°C 45.1°F7.3°C 84% Calm Calm 2.0 mph3.2 kmh 29.71 in1006.1 mb 0.04 in1.0 mm 0.00 in0.0 mm 0.35 in8.9 mm
07:11 PM 49.8°F9.9°C 45.1°F7.3°C 84% Calm Calm 2.0 mph3.2 kmh 29.71 in1006.1 mb 0.05 in1.3 mm 0.12 in3.0 mm 0.37 in9.4 mm
07:16 PM 49.8°F9.9°C 45.1°F7.3°C 84% Calm Calm 2.9 mph4.7 kmh 29.71 in1006.1 mb 0.05 in1.3 mm 0.00 in0.0 mm 0.37 in9.4 mm
07:21 PM 49.6°F9.8°C 45.0°F7.2°C 84% Calm Calm 2.0 mph3.2 kmh 29.72 in1006.4 mb 0.04 in1.0 mm 0.00 in0.0 mm 0.37 in9.4 mm
07:26 PM 49.6°F9.8°C 45.0°F7.2°C 84% 0.9 mph WNW1.4 kmh WNW 2.9 mph4.7 kmh 29.72 in1006.4 mb 0.05 in1.3 mm 0.12 in3.0 mm 0.38 in9.7 mm
07:31 PM 49.6°F9.8°C 45.0°F7.2°C 84% 0.9 mph W1.4 kmh W 6.0 mph9.7 kmh 29.72 in1006.4 mb 0.06 in1.5 mm 0.12 in3.0 mm 0.39 in9.9 mm
07:36 PM 49.5°F9.7°C 45.1°F7.3°C 85% 2.9 mph WSW4.7 kmh WSW 8.1 mph13.0 kmh 29.72 in1006.4 mb 0.06 in1.5 mm 0.00 in0.0 mm 0.39 in9.9 mm
07:41 PM 49.3°F9.6°C 45.0°F7.2°C 85% 4.0 mph W6.4 kmh W 8.1 mph13.0 kmh 29.72 in1006.4 mb 0.05 in1.3 mm 0.00 in0.0 mm 0.39 in9.9 mm
07:46 PM 49.1°F9.5°C 44.8°F7.1°C 85% 2.9 mph NW4.7 kmh NW 9.0 mph14.5 kmh 29.72 in1006.4 mb 0.05 in1.3 mm 0.00 in0.0 mm 0.40 in10.2 mm
07:51 PM 49.1°F9.5°C 44.8°F7.1°C 85% 2.9 mph W4.7 kmh W 6.0 mph9.7 kmh 29.72 in1006.4 mb 0.05 in1.3 mm 0.00 in0.0 mm 0.40 in10.2 mm
07:56 PM 49.1°F9.5°C 44.8°F7.1°C 85% 2.0 mph WNW3.2 kmh WNW 4.0 mph6.4 kmh 29.71 in1006.1 mb 0.05 in1.3 mm 0.00 in0.0 mm 0.40 in10.2 mm
08:01 PM 49.3°F9.6°C 45.0°F7.2°C 85% 0.9 mph NW1.4 kmh NW 4.0 mph6.4 kmh 29.71 in1006.1 mb 0.05 in1.3 mm 0.00 in0.0 mm 0.40 in10.2 mm
08:06 PM 49.3°F9.6°C 45.0°F7.2°C 85% 0.9 mph WNW1.4 kmh WNW 4.0 mph6.4 kmh 29.71 in1006.1 mb 0.05 in1.3 mm 0.00 in0.0 mm 0.40 in10.2 mm
08:11 PM 49.3°F9.6°C 45.0°F7.2°C 85% 0.9 mph WNW1.4 kmh WNW 2.0 mph3.2 kmh 29.71 in1006.1 mb 0.04 in1.0 mm 0.00 in0.0 mm 0.40 in10.2 mm
08:16 PM 49.3°F9.6°C 45.0°F7.2°C 85% 0.9 mph NW1.4 kmh NW 2.9 mph4.7 kmh 29.71 in1006.1 mb 0.03 in0.8 mm 0.00 in0.0 mm 0.40 in10.2 mm
08:21 PM 49.3°F9.6°C 45.0°F7.2°C 85% 0.9 mph NW1.4 kmh NW 2.0 mph3.2 kmh 29.71 in1006.1 mb 0.03 in0.8 mm 0.00 in0.0 mm 0.40 in10.2 mm
08:26 PM 49.3°F9.6°C 45.0°F7.2°C 85% 0.9 mph W1.4 kmh W 4.0 mph6.4 kmh 29.72 in1006.4 mb 0.02 in0.5 mm 0.00 in0.0 mm 0.40 in10.2 mm
08:31 PM 49.3°F9.6°C 45.0°F7.2°C 85% 2.0 mph NW3.2 kmh NW 4.0 mph6.4 kmh 29.72 in1006.4 mb 0.01 in0.3 mm 0.00 in0.0 mm 0.40 in10.2 mm
08:36 PM 49.3°F9.6°C 45.0°F7.2°C 85% 2.0 mph W3.2 kmh W 4.0 mph6.4 kmh 29.72 in1006.4 mb 0.01 in0.3 mm 0.00 in0.0 mm 0.40 in10.2 mm
08:41 PM 49.1°F9.5°C 44.8°F7.1°C 85% 2.0 mph W3.2 kmh W 6.0 mph9.7 kmh 29.72 in1006.4 mb 0.01 in0.3 mm 0.00 in0.0 mm 0.40 in10.2 mm
08:46 PM 49.3°F9.6°C 45.0°F7.2°C 85% 2.0 mph WNW3.2 kmh WNW 4.0 mph6.4 kmh 29.72 in1006.4 mb 0.00 in0.0 mm 0.00 in0.0 mm 0.40 in10.2 mm
08:51 PM 49.3°F9.6°C 45.0°F7.2°C 85% 2.0 mph WNW3.2 kmh WNW 8.1 mph13.0 kmh 29.72 in1006.4 mb 0.00 in0.0 mm 0.00 in0.0 mm 0.40 in10.2 mm
08:56 PM 49.3°F9.6°C 45.0°F7.2°C 85% 2.0 mph W3.2 kmh W 6.9 mph11.1 kmh 29.72 in1006.4 mb 0.00 in0.0 mm 0.00 in0.0 mm 0.40 in10.2 mm
09:01 PM 49.3°F9.6°C 45.0°F7.2°C 85% 2.9 mph W4.7 kmh W 9.0 mph14.5 kmh 29.72 in1006.4 mb 0.00 in0.0 mm 0.00 in0.0 mm 0.40 in10.2 mm
09:06 PM 49.3°F9.6°C 45.0°F7.2°C 85% 2.9 mph WNW4.7 kmh WNW 6.9 mph11.1 kmh 29.72 in1006.4 mb 0.00 in0.0 mm 0.00 in0.0 mm 0.40 in10.2 mm
09:11 PM 49.3°F9.6°C 45.0°F7.2°C 85% 2.0 mph WNW3.2 kmh WNW 4.9 mph7.9 kmh 29.72 in1006.4 mb 0.00 in0.0 mm 0.00 in0.0 mm 0.40 in10.2 mm
09:16 PM 49.3°F9.6°C 45.0°F7.2°C 85% 2.0 mph NW3.2 kmh NW 6.0 mph9.7 kmh 29.73 in1006.8 mb 0.00 in0.0 mm 0.00 in0.0 mm 0.40 in10.2 mm
09:21 PM 49.3°F9.6°C 45.0°F7.2°C 85% 2.0 mph WNW3.2 kmh WNW 10.1 mph16.3 kmh 29.73 in1006.8 mb 0.00 in0.0 mm 0.00 in0.0 mm 0.40 in10.2 mm
09:26 PM 49.3°F9.6°C 45.0°F7.2°C 85% 2.9 mph WNW4.7 kmh WNW 10.1 mph16.3 kmh 29.73 in1006.8 mb 0.00 in0.0 mm 0.00 in0.0 mm 0.40 in10.2 mm
09:31 PM 49.3°F9.6°C 45.0°F7.2°C 85% 2.9 mph W4.7 kmh W 8.1 mph13.0 kmh 29.73 in1006.8 mb 0.00 in0.0 mm 0.00 in0.0 mm 0.40 in10.2 mm
09:36 PM 49.3°F9.6°C 45.0°F7.2°C 85% 2.9 mph WNW4.7 kmh WNW 4.9 mph7.9 kmh 29.73 in1006.8 mb 0.00 in0.0 mm 0.00 in0.0 mm 0.40 in10.2 mm
09:41 PM 49.3°F9.6°C 45.0°F7.2°C 85% 2.0 mph WNW3.2 kmh WNW 8.1 mph13.0 kmh 29.74 in1007.1 mb 0.00 in0.0 mm 0.00 in0.0 mm 0.40 in10.2 mm
09:46 PM 49.3°F9.6°C 45.0°F7.2°C 85% 2.0 mph W3.2 kmh W 6.9 mph11.1 kmh 29.74 in1007.1 mb 0.00 in0.0 mm 0.00 in0.0 mm 0.40 in10.2 mm
09:51 PM 49.3°F9.6°C 45.0°F7.2°C 85% 2.0 mph NW3.2 kmh NW 6.0 mph9.7 kmh 29.74 in1007.1 mb 0.00 in0.0 mm 0.00 in0.0 mm 0.40 in10.2 mm
09:56 PM 49.3°F9.6°C 45.0°F7.2°C 85% 2.0 mph W3.2 kmh W 6.0 mph9.7 kmh 29.74 in1007.1 mb 0.00 in0.0 mm 0.00 in0.0 mm 0.40 in10.2 mm
10:01 PM 49.3°F9.6°C 44.6°F7.0°C 84% 2.0 mph 3.2 kmh 6.9 mph11.1 kmh 29.75 in1007.5 mb 0.00 in0.0 mm 0.00 in0.0 mm 0.40 in10.2 mm
10:06 PM 49.3°F9.6°C 44.6°F7.0°C 84% 2.0 mph NW3.2 kmh NW 6.9 mph11.1 kmh 29.75 in1007.5 mb 0.00 in0.0 mm 0.00 in0.0 mm 0.40 in10.2 mm
10:11 PM 49.3°F9.6°C 44.6°F7.0°C 84% 0.9 mph WNW1.4 kmh WNW 6.9 mph11.1 kmh 29.75 in1007.5 mb 0.00 in0.0 mm 0.00 in0.0 mm 0.40 in10.2 mm
10:16 PM 49.3°F9.6°C 44.6°F7.0°C 84% 2.0 mph NW3.2 kmh NW 6.9 mph11.1 kmh 29.74 in1007.1 mb 0.00 in0.0 mm 0.00 in0.0 mm 0.40 in10.2 mm
10:21 PM 49.3°F9.6°C 44.6°F7.0°C 84% 2.0 mph NW3.2 kmh NW 8.1 mph13.0 kmh 29.75 in1007.5 mb 0.00 in0.0 mm 0.00 in0.0 mm 0.40 in10.2 mm
10:26 PM 49.1°F9.5°C 44.4°F6.9°C 84% 2.9 mph NW4.7 kmh NW 8.9 mph14.3 kmh 29.75 in1007.5 mb 0.00 in0.0 mm 0.00 in0.0 mm 0.40 in10.2 mm
10:31 PM 49.1°F9.5°C 44.4°F6.9°C 84% 2.9 mph W4.7 kmh W 6.9 mph11.1 kmh 29.75 in1007.5 mb 0.00 in0.0 mm 0.00 in0.0 mm 0.40 in10.2 mm
10:36 PM 48.9°F9.4°C 44.2°F6.8°C 84% 2.9 mph N4.7 kmh N 8.1 mph13.0 kmh 29.75 in1007.5 mb 0.00 in0.0 mm 0.00 in0.0 mm 0.40 in10.2 mm
10:41 PM 48.9°F9.4°C 44.2°F6.8°C 84% 2.9 mph NW4.7 kmh NW 6.9 mph11.1 kmh 29.75 in1007.5 mb 0.00 in0.0 mm 0.00 in0.0 mm 0.40 in10.2 mm
10:46 PM 48.9°F9.4°C 44.2°F6.8°C 84% 2.9 mph NW4.7 kmh NW 10.1 mph16.3 kmh 29.75 in1007.5 mb 0.00 in0.0 mm 0.00 in0.0 mm 0.40 in10.2 mm
10:51 PM 48.9°F9.4°C 44.2°F6.8°C 84% 2.9 mph NW4.7 kmh NW 6.0 mph9.7 kmh 29.75 in1007.5 mb 0.00 in0.0 mm 0.00 in0.0 mm 0.40 in10.2 mm
10:56 PM 49.1°F9.5°C 44.4°F6.9°C 84% 0.9 mph NNW1.4 kmh NNW 2.9 mph4.7 kmh 29.75 in1007.5 mb 0.00 in0.0 mm 0.00 in0.0 mm 0.40 in10.2 mm
11:01 PM 48.9°F9.4°C 44.2°F6.8°C 84% 0.9 mph NNW1.4 kmh NNW 5.0 mph8.0 kmh 29.76 in1007.8 mb 0.00 in0.0 mm 0.00 in0.0 mm 0.40 in10.2 mm
11:06 PM 49.1°F9.5°C 44.4°F6.9°C 84% 0.9 mph NW1.4 kmh NW 4.0 mph6.4 kmh 29.76 in1007.8 mb 0.00 in0.0 mm 0.00 in0.0 mm 0.40 in10.2 mm
11:11 PM 49.1°F9.5°C 44.4°F6.9°C 84% 0.9 mph NW1.4 kmh NW 4.9 mph7.9 kmh 29.77 in1008.1 mb 0.00 in0.0 mm 0.00 in0.0 mm 0.40 in10.2 mm
11:16 PM 49.1°F9.5°C 44.4°F6.9°C 84% 2.0 mph NNW3.2 kmh NNW 4.9 mph7.9 kmh 29.77 in1008.1 mb 0.00 in0.0 mm 0.00 in0.0 mm 0.40 in10.2 mm
11:21 PM 48.9°F9.4°C 44.2°F6.8°C 84% 0.9 mph NW1.4 kmh NW 2.9 mph4.7 kmh 29.77 in1008.1 mb 0.00 in0.0 mm 0.00 in0.0 mm 0.40 in10.2 mm
11:26 PM 49.1°F9.5°C 44.4°F6.9°C 84% 0.9 mph NW1.4 kmh NW 7.0 mph11.3 kmh 29.77 in1008.1 mb 0.00 in0.0 mm 0.00 in0.0 mm 0.40 in10.2 mm
11:31 PM 49.1°F9.5°C 44.4°F6.9°C 84% 2.0 mph WNW3.2 kmh WNW 4.0 mph6.4 kmh 29.77 in1008.1 mb 0.00 in0.0 mm 0.00 in0.0 mm 0.40 in10.2 mm
11:36 PM 49.1°F9.5°C 44.4°F6.9°C 84% 0.9 mph NW1.4 kmh NW 2.9 mph4.7 kmh 29.77 in1008.1 mb 0.00 in0.0 mm 0.00 in0.0 mm 0.40 in10.2 mm
11:41 PM 49.1°F9.5°C 44.4°F6.9°C 84% 0.9 mph NW1.4 kmh NW 6.0 mph9.7 kmh 29.77 in1008.1 mb 0.00 in0.0 mm 0.00 in0.0 mm 0.40 in10.2 mm
11:46 PM 48.9°F9.4°C 44.2°F6.8°C 84% 2.0 mph NW3.2 kmh NW 6.9 mph11.1 kmh 29.77 in1008.1 mb 0.00 in0.0 mm 0.00 in0.0 mm 0.40 in10.2 mm
11:51 PM 48.9°F9.4°C 44.2°F6.8°C 84% 2.9 mph NNW4.7 kmh NNW 8.1 mph13.0 kmh 29.77 in1008.1 mb 0.00 in0.0 mm 0.00 in0.0 mm 0.40 in10.2 mm
11:56 PM 48.9°F9.4°C 44.2°F6.8°C 84% 2.9 mph W4.7 kmh W 6.9 mph11.1 kmh 29.77 in1008.1 mb 0.00 in0.0 mm 0.00 in0.0 mm 0.40 in10.2 mm